Time;durP1;ratioP1;P1;durP2;ratioP2;P2;SDS_P1;SDS_P2;PMS_P1;PMS_P2;Temp;Humidity;BMP_temperature;BMP_pressure;BME280_temperature;BME280_humidity;BME280_pressure;Samples;Min_cycle;Max_cycle;Signal;HPM_P1;HPM_P2
2024/01/18 00:01:15;;;;;;;3.20;2.30;;;;;;;-0.22;100.00;98380.66;5079430;28;20481;-71
2024/01/18 00:03:42;;;;;;;2.10;1.40;;;;;;;-0.24;100.00;98382.81;5079545;28;20514;-71
2024/01/18 00:06:09;;;;;;;2.63;1.70;;;;;;;-0.28;100.00;98402.00;5079407;28;20441;-71
2024/01/18 00:08:36;;;;;;;3.50;1.70;;;;;;;-0.28;100.00;98391.34;5079430;28;20530;-71
2024/01/18 00:11:02;;;;;;;2.43;1.20;;;;;;;-0.31;100.00;98405.22;5079166;28;20961;-71
2024/01/18 00:13:29;;;;;;;2.47;0.90;;;;;;;-0.34;100.00;98403.13;5079721;28;20540;-71
2024/01/18 00:15:56;;;;;;;3.00;1.70;;;;;;;-0.30;100.00;98403.38;5079530;28;20532;-71
2024/01/18 00:18:22;;;;;;;3.93;1.40;;;;;;;-0.30;100.00;98411.34;5080055;28;20445;-71
2024/01/18 00:20:50;;;;;;;4.17;2.80;;;;;;;-0.32;100.00;98411.59;5079650;28;20487;-71
2024/01/18 00:23:17;;;;;;;1.60;0.50;;;;;;;-0.33;100.00;98412.69;5076658;28;20540;-71
2024/01/18 00:25:44;;;;;;;1.90;1.03;;;;;;;-0.34;100.00;98415.63;5076215;28;20441;-71
2024/01/18 00:28:11;;;;;;;2.27;0.87;;;;;;;-0.35;100.00;98412.19;5076174;28;20449;-71
2024/01/18 00:30:38;;;;;;;1.70;0.57;;;;;;;-0.37;100.00;98405.56;5075873;28;20925;-71
2024/01/18 00:33:05;;;;;;;4.10;2.40;;;;;;;-0.40;100.00;98430.88;5076361;28;20895;-71
2024/01/18 00:35:32;;;;;;;3.77;1.90;;;;;;;-0.40;100.00;98438.84;5075964;28;20787;-71
2024/01/18 00:38:00;;;;;;;2.07;0.57;;;;;;;-0.39;99.84;98435.09;5076448;28;20520;-71
2024/01/18 00:40:27;;;;;;;4.17;1.37;;;;;;;-0.36;99.77;98447.03;5075822;28;20446;-71
2024/01/18 00:42:53;;;;;;;7.03;2.00;;;;;;;-0.32;99.44;98454.16;5075822;28;20489;-71
2024/01/18 00:45:20;;;;;;;2.07;0.67;;;;;;;-0.29;99.27;98471.44;5075766;28;20524;-71
2024/01/18 00:47:47;;;;;;;4.27;1.87;;;;;;;-0.27;99.19;98474.59;5075755;28;20988;-71
2024/01/18 00:50:13;;;;;;;3.73;2.00;;;;;;;-0.27;98.80;98477.25;5075827;28;20437;-71
2024/01/18 00:52:40;;;;;;;2.30;1.47;;;;;;;-0.29;98.68;98480.19;5075696;28;20468;-71
2024/01/18 00:55:09;;;;;;;2.10;0.97;;;;;;;-0.29;97.81;98485.53;5075941;28;20465;-70
2024/01/18 00:57:36;;;;;;;25.93;1.80;;;;;;;-0.30;97.63;98491.13;5075925;28;20449;-70
2024/01/18 01:00:03;;;;;;;1.50;0.40;;;;;;;-0.27;97.69;98493.22;5075627;28;20448;-69
2024/01/18 01:02:30;;;;;;;2.60;1.40;;;;;;;-0.27;97.41;98498.53;5075229;28;21059;-70
2024/01/18 01:04:56;;;;;;;3.50;1.83;;;;;;;-0.29;97.22;98495.38;5075633;28;20516;-70
2024/01/18 01:07:23;;;;;;;1.97;0.83;;;;;;;-0.29;97.15;98496.16;5075165;28;20480;-70
2024/01/18 01:09:50;;;;;;;3.50;1.90;;;;;;;-0.31;96.79;98503.66;5075371;28;20461;-70
2024/01/18 01:12:18;;;;;;;2.90;1.40;;;;;;;-0.34;97.01;98511.38;5075272;28;20987;-70
2024/01/18 01:14:44;;;;;;;2.60;1.67;;;;;;;-0.34;96.87;98514.03;5075299;28;20447;-70
2024/01/18 01:17:11;;;;;;;4.10;2.83;;;;;;;-0.33;96.88;98527.06;5075224;28;21012;-70
2024/01/18 01:19:37;;;;;;;2.00;1.00;;;;;;;-0.33;96.55;98532.38;5075225;28;20490;-70
2024/01/18 01:22:04;;;;;;;1.60;0.43;;;;;;;-0.31;96.47;98532.06;5075170;28;20568;-70
2024/01/18 01:24:31;;;;;;;6.03;2.60;;;;;;;-0.35;96.43;98525.75;5075739;28;20444;-70
2024/01/18 01:26:57;;;;;;;3.83;1.17;;;;;;;-0.32;96.44;98528.63;5075121;28;20523;-70
2024/01/18 01:29:25;;;;;;;4.73;3.07;;;;;;;-0.40;95.95;98545.22;5074939;28;20440;-70
2024/01/18 01:31:52;;;;;;;2.63;1.13;;;;;;;-0.34;95.94;98536.09;5075252;28;20476;-70
2024/01/18 01:34:19;;;;;;;1.80;0.97;;;;;;;-0.35;96.18;98537.19;5074783;28;20445;-70
2024/01/18 01:36:45;;;;;;;6.37;2.60;;;;;;;-0.36;96.16;98534.78;5075296;28;20525;-70
2024/01/18 01:39:12;;;;;;;1.90;1.10;;;;;;;-0.32;96.05;98539.25;5074812;28;20443;-70
2024/01/18 01:41:38;;;;;;;4.70;2.90;;;;;;;-0.29;96.06;98549.34;5075029;28;20487;-70
2024/01/18 01:44:08;;;;;;;2.70;1.13;;;;;;;-0.29;95.53;98557.34;5074866;28;20458;-70
2024/01/18 01:46:36;;;;;;;2.67;1.27;;;;;;;-0.29;95.80;98549.34;5074653;28;20558;-70
2024/01/18 01:49:04;;;;;;;1.83;0.97;;;;;;;-0.31;95.33;98550.69;5074371;28;20570;-70
2024/01/18 01:51:35;;;;;;;2.27;1.70;;;;;;;-0.35;95.19;98555.81;5074804;28;20628;-70
2024/01/18 01:54:03;;;;;;;1.83;0.73;;;;;;;-0.38;95.53;98559.00;5074760;28;20454;-70
2024/01/18 01:56:30;;;;;;;1.60;0.50;;;;;;;-0.40;96.64;98565.66;5074398;28;20465;-70
2024/01/18 01:58:57;;;;;;;5.50;1.83;;;;;;;-0.37;95.96;98573.09;5074918;28;20469;-70
2024/01/18 02:01:23;;;;;;;2.80;2.47;;;;;;;-0.38;95.91;98571.53;5074611;28;20992;-70
2024/01/18 02:03:52;;;;;;;2.63;1.57;;;;;;;-0.43;96.24;98577.69;5074580;28;20445;-70
2024/01/18 02:06:18;;;;;;;1.63;0.57;;;;;;;-0.38;96.27;98564.34;5074949;28;20524;-70
2024/01/18 02:08:46;;;;;;;3.20;1.27;;;;;;;-0.36;95.95;98564.84;5075401;28;20446;-70
2024/01/18 02:11:15;;;;;;;3.17;1.60;;;;;;;-0.32;96.21;98557.88;5074063;28;20750;-70
2024/01/18 02:13:41;;;;;;;4.43;2.60;;;;;;;-0.32;96.95;98557.88;5074818;28;20505;-70
2024/01/18 02:16:09;;;;;;;3.50;1.43;;;;;;;-0.24;96.87;98571.66;5074638;28;20528;-70
2024/01/18 02:18:36;;;;;;;4.23;1.27;;;;;;;-0.21;96.39;98574.56;5074438;28;20437;-70
2024/01/18 02:21:07;;;;;;;2.47;0.87;;;;;;;-0.23;96.32;98579.34;5073748;28;20532;-70
2024/01/18 02:23:35;;;;;;;5.10;1.17;;;;;;;-0.30;96.05;98587.69;5074574;28;20421;-70
2024/01/18 02:26:03;;;;;;;2.47;0.80;;;;;;;-0.31;95.86;98588.75;5073930;28;20441;-70
2024/01/18 02:28:30;;;;;;;10.70;1.13;;;;;;;-0.31;96.35;98594.06;5074195;28;20532;-70
2024/01/18 02:30:57;;;;;;;4.90;3.13;;;;;;;-0.29;94.75;98597.22;5074318;28;20439;-70
2024/01/18 02:33:23;;;;;;;3.63;3.27;;;;;;;-0.30;94.84;98603.63;5074134;28;20871;-70
2024/01/18 02:35:50;;;;;;;1.90;1.03;;;;;;;-0.31;95.09;98604.72;5073875;28;20507;-70
2024/01/18 02:38:17;;;;;;;3.63;1.90;;;;;;;-0.31;95.02;98609.22;5073768;28;20439;-70
2024/01/18 02:40:44;;;;;;;1.70;0.50;;;;;;;-0.32;95.18;98603.09;5073725;28;20507;-70
2024/01/18 02:43:12;;;;;;;4.33;1.53;;;;;;;-0.28;94.84;98613.97;5073601;28;21092;-70
2024/01/18 02:45:38;;;;;;;7.40;1.63;;;;;;;-0.26;95.72;98606.53;5073148;28;20463;-70
2024/01/18 02:48:05;;;;;;;3.80;1.97;;;;;;;-0.24;95.08;98603.59;5073380;28;20527;-70
2024/01/18 02:50:32;;;;;;;2.80;1.73;;;;;;;-0.27;95.45;98612.91;5073704;28;20433;-70
2024/01/18 02:52:58;;;;;;;2.30;1.23;;;;;;;-0.23;95.85;98615.81;5073710;28;20472;-70
2024/01/18 02:55:25;;;;;;;4.37;1.67;;;;;;;-0.26;95.38;98627.81;5073624;28;20469;-70
2024/01/18 02:57:53;;;;;;;2.53;1.70;;;;;;;-0.31;94.22;98626.00;5073925;28;20447;-70
2024/01/18 03:00:21;;;;;;;2.73;1.00;;;;;;;-0.34;94.60;98631.06;5073713;28;20445;-70
2024/01/18 03:02:48;;;;;;;5.10;1.23;;;;;;;-0.36;95.29;98633.97;5073466;28;20558;-70
2024/01/18 03:05:15;;;;;;;2.70;1.30;;;;;;;-0.32;96.50;98621.72;5073862;28;20525;-70
2024/01/18 03:07:41;;;;;;;3.03;1.87;;;;;;;-0.30;96.59;98624.91;5073873;28;20520;-70
2024/01/18 03:10:09;;;;;;;2.13;0.83;;;;;;;-0.24;96.51;98615.00;5073395;28;20540;-70
2024/01/18 03:12:37;;;;;;;1.70;0.70;;;;;;;-0.22;96.13;98623.53;5073284;28;20949;-70
2024/01/18 03:15:05;;;;;;;4.77;3.17;;;;;;;-0.28;95.70;98629.94;5074148;28;20495;-70
2024/01/18 03:17:32;;;;;;;1.80;0.70;;;;;;;-0.36;95.22;98633.97;5073302;28;20445;-70
2024/01/18 03:19:59;;;;;;;4.17;2.20;;;;;;;-0.39;93.94;98639.09;5073675;28;20527;-70
2024/01/18 03:22:26;;;;;;;5.07;3.17;;;;;;;-0.56;95.42;98629.63;5073844;28;20834;-70
2024/01/18 03:24:52;;;;;;;7.40;1.30;;;;;;;-0.49;95.50;98634.59;5073716;28;20529;-70
2024/01/18 03:27:21;;;;;;;6.90;1.00;;;;;;;-0.45;95.83;98629.53;5073302;28;20437;-70
2024/01/18 03:29:47;;;;;;;2.73;0.90;;;;;;;-0.42;95.89;98639.63;5073248;28;20528;-71
2024/01/18 03:32:14;;;;;;;2.40;1.70;;;;;;;-0.40;94.56;98640.94;5073347;28;20453;-69
2024/01/18 03:34:42;;;;;;;4.00;2.07;;;;;;;-0.50;94.04;98651.63;5073253;28;20469;-68
2024/01/18 03:37:09;;;;;;;3.30;1.53;;;;;;;-0.53;93.72;98654.88;5073184;28;20529;-70
2024/01/18 03:39:36;;;;;;;3.60;2.57;;;;;;;-0.62;93.55;98645.84;5072717;28;20801;-70
2024/01/18 03:42:03;;;;;;;1.80;0.80;;;;;;;-0.65;94.45;98657.84;5073025;28;21205;-71
2024/01/18 03:44:29;;;;;;;2.90;1.80;;;;;;;-0.69;94.67;98658.69;5073499;28;20527;-71
2024/01/18 03:46:56;;;;;;;1.70;0.80;;;;;;;-0.74;94.99;98656.06;5073233;28;20490;-70
2024/01/18 03:49:23;;;;;;;5.20;1.73;;;;;;;-0.78;94.91;98674.41;5073083;28;20530;-70
2024/01/18 03:51:51;;;;;;;2.73;2.03;;;;;;;-0.87;95.59;98679.50;5073015;28;20459;-70
2024/01/18 03:54:17;;;;;;;1.60;0.47;;;;;;;-0.92;96.20;98679.53;5073203;28;20469;-70
2024/01/18 03:56:44;;;;;;;2.63;1.23;;;;;;;-0.93;96.37;98693.88;5073041;28;20525;-70
2024/01/18 03:59:14;;;;;;;3.53;1.90;;;;;;;-0.90;96.30;98692.53;5075539;28;20530;-70
2024/01/18 04:01:40;;;;;;;2.47;1.27;;;;;;;-0.90;96.24;98680.03;5076602;28;20485;-70
2024/01/18 04:04:08;;;;;;;4.10;3.63;;;;;;;-0.86;96.49;98689.06;5076346;28;20483;-70
2024/01/18 04:06:34;;;;;;;3.40;1.30;;;;;;;-0.87;95.57;98692.78;5076588;28;20447;-70
2024/01/18 04:09:05;;;;;;;2.90;0.90;;;;;;;-0.89;96.63;98683.47;5076532;28;20531;-70
2024/01/18 04:11:31;;;;;;;3.30;1.43;;;;;;;-0.82;96.51;98684.78;5076549;28;20464;-70
2024/01/18 04:13:57;;;;;;;3.33;2.13;;;;;;;-0.82;96.50;98684.78;5076944;28;20445;-70
2024/01/18 04:16:24;;;;;;;2.23;1.07;;;;;;;-0.82;96.71;98690.09;5076789;28;20231;-70
2024/01/18 04:18:51;;;;;;;2.40;0.97;;;;;;;-0.82;96.90;98692.75;5076109;28;20472;-70
2024/01/18 04:21:18;;;;;;;2.30;1.57;;;;;;;-0.80;97.10;98698.59;5076689;28;20440;-70
2024/01/18 04:23:44;;;;;;;3.20;1.73;;;;;;;-0.77;96.64;98698.03;5076233;28;20920;-70
2024/01/18 04:26:12;;;;;;;3.90;1.83;;;;;;;-0.77;97.14;98702.56;5076043;28;20529;-70
2024/01/18 04:28:39;;;;;;;5.10;2.20;;;;;;;-0.78;97.32;98707.09;5076630;28;20536;-70
2024/01/18 04:31:06;;;;;;;2.47;1.10;;;;;;;-0.78;98.00;98717.72;5076067;28;20531;-70
2024/01/18 04:33:32;;;;;;;1.50;0.30;;;;;;;-0.67;97.91;98710.47;5075812;28;20947;-70
2024/01/18 04:35:59;;;;;;;5.50;2.57;;;;;;;-0.66;96.84;98720.06;5076112;28;20532;-69
2024/01/18 04:38:25;;;;;;;8.67;2.13;;;;;;;-0.69;95.95;98707.31;5076495;28;20528;-70
2024/01/18 04:40:52;;;;;;;10.67;2.10;;;;;;;-0.80;96.52;98703.94;5075919;28;20467;-70
2024/01/18 04:43:20;;;;;;;2.87;2.23;;;;;;;-0.79;96.46;98721.44;5076229;28;20495;-70
2024/01/18 04:45:47;;;;;;;3.53;2.23;;;;;;;-0.75;96.45;98727.03;5075802;28;20524;-70
2024/01/18 04:48:13;;;;;;;5.73;1.67;;;;;;;-0.80;96.06;98725.19;5076354;28;20528;-69
2024/01/18 04:50:40;;;;;;;1.50;0.40;;;;;;;-0.74;96.77;98709.22;5076090;28;20948;-70
2024/01/18 04:53:07;;;;;;;1.70;0.60;;;;;;;-0.76;96.87;98715.56;5076704;28;20492;-70
2024/01/18 04:55:33;;;;;;;5.97;1.40;;;;;;;-0.79;97.05;98720.66;5075782;28;20439;-70
2024/01/18 04:58:00;;;;;;;4.37;1.60;;;;;;;-0.78;96.27;98723.03;5075725;28;20843;-70
2024/01/18 05:00:29;;;;;;;1.70;0.80;;;;;;;-0.81;96.63;98726.22;5076192;28;20469;-70
2024/01/18 05:02:55;;;;;;;3.03;1.07;;;;;;;-0.77;96.97;98711.34;5075112;28;20487;-70
2024/01/18 05:05:22;;;;;;;4.33;1.83;;;;;;;-0.74;96.66;98706.56;5075441;28;20445;-71
2024/01/18 05:07:49;;;;;;;3.30;1.80;;;;;;;-0.75;96.25;98711.06;5076118;28;20888;-70
2024/01/18 05:10:16;;;;;;;5.80;2.23;;;;;;;-0.81;96.40;98723.56;5074954;28;20783;-70
2024/01/18 05:12:44;;;;;;;8.40;2.93;;;;;;;-0.82;96.24;98724.66;5075347;28;20560;-69
2024/01/18 05:15:11;;;;;;;2.87;1.67;;;;;;;-0.79;96.74;98725.97;5075483;28;20441;-69
2024/01/18 05:17:41;;;;;;;1.87;0.93;;;;;;;-0.77;96.87;98724.63;5075279;28;20437;-70
2024/01/18 05:20:09;;;;;;;3.00;1.13;;;;;;;-0.76;96.75;98736.03;5075004;28;20449;-70
2024/01/18 05:22:36;;;;;;;1.80;0.80;;;;;;;-0.80;96.31;98741.13;5075543;28;20577;-70
2024/01/18 05:25:03;;;;;;;2.53;1.43;;;;;;;-0.92;96.95;98731.88;5075188;28;20459;-69
2024/01/18 05:27:30;;;;;;;2.43;1.27;;;;;;;-0.86;96.45;98736.09;5074813;28;20442;-69
2024/01/18 05:29:57;;;;;;;4.30;1.57;;;;;;;-0.86;96.48;98736.88;5075359;28;20441;-69
2024/01/18 05:32:24;;;;;;;1.80;0.70;;;;;;;-0.92;96.43;98737.19;5074979;28;20488;-69
2024/01/18 05:34:52;;;;;;;1.80;1.10;;;;;;;-0.90;96.38;98746.47;5074965;28;20441;-69
2024/01/18 05:37:22;;;;;;;2.27;0.80;;;;;;;-0.81;96.72;98754.69;5074188;28;20988;-69
2024/01/18 05:39:50;;;;;;;1.50;0.40;;;;;;;-0.80;96.22;98757.06;5074725;28;20503;-69
2024/01/18 05:42:16;;;;;;;2.23;1.80;;;;;;;-0.84;95.99;98766.66;5074312;28;20489;-70
2024/01/18 05:44:43;;;;;;;3.40;1.13;;;;;;;-0.94;95.69;98764.00;5074067;28;20532;-69
2024/01/18 05:47:10;;;;;;;2.07;0.80;;;;;;;-0.89;96.05;98774.63;5074629;28;20441;-69
2024/01/18 05:49:37;;;;;;;1.70;0.60;;;;;;;-0.85;96.12;98785.50;5074619;28;20433;-69
2024/01/18 05:52:06;;;;;;;1.60;0.40;;;;;;;-0.92;96.80;98796.44;5074158;28;20548;-70
2024/01/18 05:54:33;;;;;;;2.30;1.07;;;;;;;-0.88;96.80;98799.34;5074212;28;20814;-70
2024/01/18 05:57:00;;;;;;;3.30;2.57;;;;;;;-0.88;96.75;98800.16;5074544;28;20484;-68
2024/01/18 05:59:26;;;;;;;19.53;2.03;;;;;;;-0.92;96.34;98800.97;5074173;28;20441;-69
2024/01/18 06:01:53;;;;;;;6.50;4.27;;;;;;;-0.96;96.54;98799.91;5073860;28;20466;-69
2024/01/18 06:04:20;;;;;;;1.90;0.83;;;;;;;-0.99;96.20;98805.75;5074606;28;20524;-69
2024/01/18 06:06:47;;;;;;;1.60;0.40;;;;;;;-1.02;96.62;98818.53;5074649;28;20468;-69
2024/01/18 06:09:16;;;;;;;2.60;1.27;;;;;;;-1.10;97.29;98812.97;5074493;28;20480;-69
2024/01/18 06:11:43;;;;;;;1.70;0.73;;;;;;;-1.10;97.19;98827.03;5074323;28;20499;-69
2024/01/18 06:14:09;;;;;;;1.60;0.50;;;;;;;-1.14;98.45;98831.28;5074501;28;20463;-69
2024/01/18 06:16:36;;;;;;;1.93;1.00;;;;;;;-1.09;98.38;98835.78;5074417;28;20441;-68
2024/01/18 06:19:02;;;;;;;2.90;1.20;;;;;;;-1.07;98.23;98839.75;5074189;28;20540;-68
2024/01/18 06:21:29;;;;;;;1.87;1.10;;;;;;;-1.10;98.24;98844.84;5073567;28;20461;-68
2024/01/18 06:23:56;;;;;;;2.10;1.30;;;;;;;-1.07;98.26;98849.59;5073941;28;20576;-68
2024/01/18 06:26:24;;;;;;;10.00;3.43;;;;;;;-0.96;98.16;98843.22;5074290;28;20529;-68
2024/01/18 06:28:50;;;;;;;4.83;1.23;;;;;;;-0.89;97.90;98850.91;5073936;28;20852;-69
2024/01/18 06:31:19;;;;;;;6.03;2.60;;;;;;;-0.93;98.02;98848.00;5074190;28;20437;-69
2024/01/18 06:33:46;;;;;;;2.10;0.97;;;;;;;-0.89;97.92;98848.22;5074056;28;20440;-69
2024/01/18 06:36:14;;;;;;;4.30;3.07;;;;;;;-0.88;97.95;98855.97;5074112;28;20449;-69
2024/01/18 06:38:41;;;;;;;3.97;1.47;;;;;;;-0.98;98.28;98866.56;5073459;28;20999;-69
2024/01/18 06:41:11;;;;;;;2.33;1.27;;;;;;;-0.93;98.47;98879.06;5074074;28;20453;-69
2024/01/18 06:43:39;;;;;;;3.00;2.40;;;;;;;-0.88;97.95;98871.09;5074073;28;20477;-69
2024/01/18 06:46:15;;;;;;;2.70;1.53;;;;;;;-0.93;98.41;98876.41;5074058;28;20516;-69
2024/01/18 06:48:42;;;;;;;2.00;0.77;;;;;;;-0.94;98.01;98880.13;5073698;28;20422;-69
2024/01/18 06:51:09;;;;;;;3.30;2.40;;;;;;;-0.98;97.79;98873.75;5073982;28;20520;-69
2024/01/18 06:53:36;;;;;;;3.60;1.53;;;;;;;-1.03;97.20;98879.88;5073579;28;20991;-69
2024/01/18 06:56:03;;;;;;;2.50;1.00;;;;;;;-1.08;96.99;98882.53;5073932;28;20455;-69
2024/01/18 06:58:29;;;;;;;4.70;1.43;;;;;;;-1.14;96.78;98886.28;5073538;28;20448;-69
2024/01/18 07:00:57;;;;;;;2.20;1.70;;;;;;;-1.23;97.24;98882.56;5073525;28;21013;-69
2024/01/18 07:03:25;;;;;;;4.57;2.10;;;;;;;-1.26;97.40;98881.22;5073254;28;20576;-69
2024/01/18 07:05:51;;;;;;;2.77;1.37;;;;;;;-1.24;97.58;98879.06;5073349;28;20447;-68
2024/01/18 07:08:18;;;;;;;2.07;1.27;;;;;;;-1.30;97.60;98874.84;5073304;28;20949;-68
2024/01/18 07:10:48;;;;;;;2.50;0.80;;;;;;;-1.33;98.32;98892.13;5073023;28;20985;-68
2024/01/18 07:13:14;;;;;;;13.33;3.00;;;;;;;-1.38;98.04;98886.78;5073721;28;20453;-69
2024/01/18 07:15:41;;;;;;;2.40;0.87;;;;;;;-1.39;98.49;98893.16;5073666;28;20461;-69
2024/01/18 07:18:09;;;;;;;5.40;2.00;;;;;;;-1.53;98.21;98898.19;5073355;28;20866;-68
2024/01/18 07:20:36;;;;;;;3.60;2.20;;;;;;;-1.48;98.17;98900.03;5073006;28;20995;-68
2024/01/18 07:23:02;;;;;;;1.60;0.50;;;;;;;-1.52;98.44;98893.66;5073174;28;20485;-69
2024/01/18 07:25:29;;;;;;;13.33;1.90;;;;;;;-1.48;98.50;98892.09;5073076;28;20933;-70
2024/01/18 07:27:56;;;;;;;3.23;1.93;;;;;;;-1.51;99.60;98895.25;5073551;28;20490;-69
2024/01/18 07:30:23;;;;;;;5.93;1.70;;;;;;;-1.36;99.52;98884.66;5073530;28;20527;-68
2024/01/18 07:32:50;;;;;;;3.50;1.07;;;;;;;-1.26;98.96;98883.88;5075542;28;20485;-68
2024/01/18 07:35:18;;;;;;;6.43;2.20;;;;;;;-1.27;99.33;98891.03;5077449;28;20452;-70
2024/01/18 07:37:45;;;;;;;3.23;2.00;;;;;;;-1.15;99.14;98884.66;5078242;28;20800;-69
2024/01/18 07:40:12;;;;;;;2.00;0.97;;;;;;;-1.10;98.97;98885.47;5077148;28;20459;-69
2024/01/18 07:42:38;;;;;;;4.00;1.63;;;;;;;-1.06;99.23;98891.06;5076660;28;20457;-69
2024/01/18 07:45:07;;;;;;;5.03;2.40;;;;;;;-1.02;99.57;98889.44;5077784;28;20523;-69
2024/01/18 07:47:34;;;;;;;1.80;0.97;;;;;;;-1.00;99.55;98889.97;5076993;28;20445;-69
2024/01/18 07:50:01;;;;;;;2.70;1.73;;;;;;;-0.97;98.90;98892.13;5077550;28;20543;-68
2024/01/18 07:52:28;;;;;;;3.80;2.17;;;;;;;-0.97;98.29;98894.78;5076903;28;20471;-68
2024/01/18 07:54:55;;;;;;;2.70;1.50;;;;;;;-1.09;98.38;98899.56;5077177;28;20528;-68
2024/01/18 07:57:22;;;;;;;2.97;1.37;;;;;;;-1.07;98.80;98902.72;5077177;28;20536;-67
2024/01/18 07:59:48;;;;;;;4.53;1.50;;;;;;;-1.03;98.36;98915.22;5076456;28;20436;-69
2024/01/18 08:02:15;;;;;;;2.40;1.60;;;;;;;-0.95;97.69;98916.53;5076792;28;20458;-69
2024/01/18 08:04:41;;;;;;;2.63;1.77;;;;;;;-0.96;97.12;98920.28;5076597;28;20476;-69
2024/01/18 08:07:08;;;;;;;1.60;0.50;;;;;;;-0.93;97.37;98921.56;5077340;28;20472;-69
2024/01/18 08:09:37;;;;;;;3.43;1.30;;;;;;;-0.86;97.68;98920.25;5076498;28;20472;-68
2024/01/18 08:12:05;;;;;;;3.43;3.13;;;;;;;-0.84;98.43;98934.09;5076383;28;20468;-68
2024/01/18 08:14:32;;;;;;;2.20;1.03;;;;;;;-0.80;98.02;98932.50;5076807;28;20461;-68
2024/01/18 08:16:58;;;;;;;2.63;1.53;;;;;;;-0.71;97.71;98924.75;5076112;28;20484;-68
2024/01/18 08:19:25;;;;;;;2.63;1.73;;;;;;;-0.69;97.43;98930.59;5076161;28;20437;-68
2024/01/18 08:21:53;;;;;;;2.67;1.20;;;;;;;-0.84;96.69;98933.25;5076363;28;20998;-68
2024/01/18 08:24:19;;;;;;;1.60;0.47;;;;;;;-0.80;97.32;98940.47;5076367;28;20992;-68
2024/01/18 08:26:47;;;;;;;1.87;0.83;;;;;;;-0.73;97.19;98937.53;5076038;28;20472;-68
2024/01/18 08:29:14;;;;;;;3.00;1.67;;;;;;;-0.69;97.59;98941.25;5076217;28;20878;-68
2024/01/18 08:31:41;;;;;;;2.77;2.50;;;;;;;-0.64;97.47;98945.75;5076102;28;20496;-67
2024/01/18 08:34:08;;;;;;;4.70;2.30;;;;;;;-0.66;96.99;98947.91;5075884;28;20525;-67
2024/01/18 08:36:36;;;;;;;3.30;1.80;;;;;;;-0.70;97.00;98950.28;5076038;28;20544;-68
2024/01/18 08:39:03;;;;;;;4.77;2.37;;;;;;;-0.64;96.82;98946.56;5075716;28;20532;-70
2024/01/18 08:41:30;;;;;;;4.47;3.23;;;;;;;-0.58;97.49;98955.31;5075856;28;20555;-68
2024/01/18 08:43:58;;;;;;;2.83;1.37;;;;;;;-0.48;96.89;98955.31;5075001;28;21049;-68
2024/01/18 08:46:26;;;;;;;4.43;2.57;;;;;;;-0.41;97.12;98955.81;5075891;28;20441;-69
2024/01/18 08:48:52;;;;;;;1.80;0.93;;;;;;;-0.40;96.31;98957.44;5076318;28;20446;-68
2024/01/18 08:51:19;;;;;;;3.93;3.43;;;;;;;-0.37;96.09;98959.53;5076368;28;20473;-68
2024/01/18 08:53:47;;;;;;;1.80;0.90;;;;;;;-0.32;96.28;98959.53;5076413;28;20438;-68
2024/01/18 08:56:13;;;;;;;5.60;2.10;;;;;;;-0.30;95.43;98961.94;5075905;28;20528;-69
2024/01/18 08:58:40;;;;;;;6.60;1.37;;;;;;;-0.30;96.01;98965.38;5075939;28;20764;-69
2024/01/18 09:01:08;;;;;;;1.87;0.97;;;;;;;-0.24;95.27;98960.03;5074975;28;20449;-69
2024/01/18 09:03:35;;;;;;;4.97;2.07;;;;;;;-0.22;95.62;98961.38;5075201;28;20516;-69
2024/01/18 09:06:01;;;;;;;3.50;1.93;;;;;;;-0.20;95.72;98966.41;5075585;28;20469;-69
2024/01/18 09:08:28;;;;;;;7.87;2.40;;;;;;;-0.18;95.27;98977.56;5075467;28;20442;-69
2024/01/18 09:10:54;;;;;;;5.93;2.90;;;;;;;-0.18;95.21;98982.91;5075287;28;21012;-69
2024/01/18 09:13:21;;;;;;;4.83;1.83;;;;;;;-0.17;94.98;98987.97;5075355;28;20492;-69
2024/01/18 09:15:50;;;;;;;4.03;2.63;;;;;;;-0.18;95.31;98996.19;5075832;28;20511;-69
2024/01/18 09:18:18;;;;;;;2.17;1.53;;;;;;;-0.17;95.42;99003.94;5075345;28;20854;-69
2024/01/18 09:20:45;;;;;;;3.03;1.43;;;;;;;-0.22;95.39;99005.78;5074966;28;20524;-69
2024/01/18 09:23:12;;;;;;;2.13;1.27;;;;;;;-0.22;96.14;99011.94;5075104;28;20465;-69
2024/01/18 09:25:39;;;;;;;3.77;3.00;;;;;;;-0.12;95.94;99017.22;5075488;28;20918;-69
2024/01/18 09:28:07;;;;;;;7.00;4.83;;;;;;;-0.07;96.59;99016.41;5074747;28;21020;-69
2024/01/18 09:30:34;;;;;;;2.17;1.33;;;;;;;-0.01;96.74;99024.09;5075124;28;20464;-69
2024/01/18 09:33:01;;;;;;;3.07;1.60;;;;;;;0.07;96.26;99029.94;5075230;28;20467;-69
2024/01/18 09:35:29;;;;;;;2.00;0.90;;;;;;;0.05;95.23;99032.91;5074984;28;20483;-69
2024/01/18 09:37:56;;;;;;;2.40;1.03;;;;;;;0.06;95.55;99036.34;5074955;28;20917;-69
2024/01/18 09:40:23;;;;;;;2.27;1.37;;;;;;;0.08;95.33;99037.66;5074664;28;20503;-70
2024/01/18 09:42:51;;;;;;;5.33;3.87;;;;;;;0.10;94.60;99048.06;5074890;28;20487;-69
2024/01/18 09:45:26;;;;;;;2.37;1.43;;;;;;;0.13;94.46;99053.59;5074842;28;20517;-69
2024/01/18 09:47:54;;;;;;;5.37;2.20;;;;;;;0.13;94.34;99042.97;5074543;28;20428;-69
2024/01/18 09:50:22;;;;;;;6.10;3.27;;;;;;;0.08;94.59;99056.28;5075282;28;20491;-69
2024/01/18 09:52:50;;;;;;;2.37;1.23;;;;;;;0.11;94.57;99058.41;5075224;28;20489;-68
2024/01/18 09:55:17;;;;;;;3.33;2.27;;;;;;;0.13;94.68;99064.25;5074563;28;20430;-69
2024/01/18 09:57:48;;;;;;;3.90;2.03;;;;;;;0.08;94.67;99064.28;5074510;28;20484;-69
2024/01/18 10:00:16;;;;;;;2.60;2.10;;;;;;;0.06;95.12;99062.97;5074483;28;20426;-69
2024/01/18 10:02:43;;;;;;;5.53;1.73;;;;;;;0.06;94.58;99068.28;5074309;28;20461;-69
2024/01/18 10:05:13;;;;;;;6.33;1.43;;;;;;;0.00;95.56;99062.19;5073908;28;21075;-69
2024/01/18 10:07:39;;;;;;;4.30;2.30;;;;;;;0.08;95.16;99064.28;5075023;28;20461;-69
2024/01/18 10:10:12;;;;;;;4.97;2.07;;;;;;;0.16;95.41;99065.59;5074592;28;20452;-69
2024/01/18 10:12:41;;;;;;;2.20;1.27;;;;;;;0.22;95.00;99065.31;5074492;28;20488;-69
2024/01/18 10:15:09;;;;;;;2.37;1.30;;;;;;;0.21;95.11;99063.72;5074446;28;20468;-69
2024/01/18 10:17:37;;;;;;;2.37;1.20;;;;;;;0.30;95.10;99068.47;5074617;28;20456;-69
2024/01/18 10:20:10;;;;;;;10.80;2.40;;;;;;;0.38;95.42;99058.06;5074492;28;20528;-69
2024/01/18 10:22:37;;;;;;;8.93;2.67;;;;;;;0.48;96.15;99070.56;5074381;28;20648;-69
2024/01/18 10:25:05;;;;;;;9.90;4.37;;;;;;;0.56;95.87;99063.88;5074526;28;20572;-69
2024/01/18 10:27:33;;;;;;;4.60;3.70;;;;;;;0.59;95.28;99066.78;5073880;28;20441;-69
2024/01/18 10:29:59;;;;;;;5.60;3.47;;;;;;;0.49;94.13;99072.16;5073910;28;20520;-69
2024/01/18 10:32:31;;;;;;;2.80;1.20;;;;;;;0.44;94.09;99072.16;5074162;28;20457;-70
2024/01/18 10:34:58;;;;;;;5.80;3.70;;;;;;;0.52;94.20;99074.28;5074353;28;20423;-69
2024/01/18 10:37:24;;;;;;;3.53;1.50;;;;;;;0.50;93.92;99079.88;5073520;28;21012;-69
2024/01/18 10:39:52;;;;;;;3.20;2.57;;;;;;;0.55;94.08;99089.72;5073788;28;20445;-69
2024/01/18 10:42:20;;;;;;;16.03;4.90;;;;;;;0.59;94.67;99082.78;5073849;28;20552;-69
2024/01/18 10:44:51;;;;;;;3.37;2.50;;;;;;;0.65;94.19;99084.34;5073721;28;20515;-69
2024/01/18 10:47:18;;;;;;;4.53;2.77;;;;;;;0.74;94.05;99081.91;5073841;28;20428;-69
2024/01/18 10:49:46;;;;;;;2.07;1.30;;;;;;;0.65;92.91;99095.00;5073935;28;20448;-69
2024/01/18 10:52:12;;;;;;;3.20;2.40;;;;;;;0.63;93.07;99093.69;5073276;28;20461;-70
2024/01/18 10:54:39;;;;;;;2.30;1.13;;;;;;;0.60;92.58;99097.69;5074025;28;20436;-69
2024/01/18 10:57:06;;;;;;;4.30;3.90;;;;;;;0.71;92.72;99099.25;5073746;28;20855;-69
2024/01/18 10:59:33;;;;;;;3.67;1.73;;;;;;;0.81;92.71;99100.28;5073845;28;20794;-69
2024/01/18 11:02:01;;;;;;;5.27;3.47;;;;;;;0.81;92.80;99100.28;5073575;28;20531;-69
2024/01/18 11:04:29;;;;;;;4.10;2.83;;;;;;;0.82;92.67;99102.66;5073822;28;20487;-69
2024/01/18 11:06:56;;;;;;;5.10;2.40;;;;;;;0.79;93.18;99105.06;5073029;28;20476;-69
2024/01/18 11:09:26;;;;;;;2.37;1.43;;;;;;;0.74;92.42;99114.69;5073508;28;20790;-69
2024/01/18 11:11:54;;;;;;;8.03;3.23;;;;;;;0.66;92.24;99117.09;5074608;28;20814;-69
2024/01/18 11:14:21;;;;;;;4.70;3.30;;;;;;;0.60;92.94;99121.66;5073429;28;20441;-69
2024/01/18 11:16:49;;;;;;;2.80;1.80;;;;;;;0.56;92.51;99120.59;5073851;28;20464;-69
2024/01/18 11:19:39;;;;;;;2.87;2.07;;;;;;;0.50;93.64;99114.50;5073537;28;20499;-69
2024/01/18 11:22:09;;;;;;;4.73;3.23;;;;;;;0.53;93.49;99115.03;5073336;28;20453;-69
2024/01/18 11:24:36;;;;;;;2.07;1.20;;;;;;;0.60;93.78;99134.97;5074042;28;20485;-69
2024/01/18 11:27:17;;;;;;;1.70;0.60;;;;;;;0.67;93.85;99135.50;5073280;28;20433;-69
2024/01/18 11:29:45;;;;;;;3.23;2.00;;;;;;;0.67;93.31;99127.50;5073702;28;20452;-69
2024/01/18 11:32:14;;;;;;;5.97;3.30;;;;;;;0.57;93.84;99127.53;5073239;28;20488;-68
2024/01/18 11:34:42;;;;;;;8.20;4.37;;;;;;;0.62;93.65;99137.38;5073578;28;20433;-67